Gilmore, Arkansas
Current Conditions -  °F | °C
As of 9:53 PM on Sunday 21 Dec 2014 (Local Time) from KAWM Reporting Station
Few Clouds Few Clouds  
Wind Chill:   Ceiling: Unl
Heat Index:   Visibility: 10mi
Dew Point:   Wind: 10mph
Humidity: 86%   Direction: 150°SSE
Pressure: 29.94"   Gusts: NA
Location:  35.41°N, 90.28°W
Report Text: KAWM 220353Z AUTO 15009KT 10SM FEW080 06/04 A2994 RMK AO2 SLP138 T00610039 $
Loading
Personal Weather Stations






























Interactive Weather Map New forecast layout! Learn more

10-Day Weather Forecast

Advertisements
Track Severe Weather on mobile